createdAt,value
2022-12-25T00:04:52.328Z,25.48828125
2022-12-25T00:14:52.220Z,26.1962890625
2022-12-25T00:24:52.154Z,26.2939453125
2022-12-25T00:34:52.097Z,26.3916015625
2022-12-25T00:44:51.996Z,25.9033203125
2022-12-25T00:54:51.990Z,26.2939453125
2022-12-25T01:04:51.960Z,26.2939453125
2022-12-25T01:14:51.798Z,26.0986328125
2022-12-25T01:24:51.744Z,26.2939453125
2022-12-25T01:34:55.845Z,26.611328125
2022-12-25T01:44:51.570Z,27.392578125
2022-12-25T01:54:51.519Z,27.294921875
2022-12-25T02:04:51.475Z,27.587890625
2022-12-25T02:14:51.367Z,27.392578125
2022-12-25T02:24:51.339Z,27.099609375
2022-12-25T02:34:51.327Z,26.904296875
2022-12-25T02:44:51.237Z,25
2022-12-25T02:54:51.112Z,24.90234375
2022-12-25T03:04:51.005Z,24.0966796875
2022-12-25T03:14:50.923Z,22.998046875
2022-12-25T03:24:50.876Z,22.30224609375
2022-12-25T03:34:50.809Z,21.8017578125
2022-12-25T03:44:50.720Z,21.39892578125
2022-12-25T03:54:50.629Z,21.10595703125
2022-12-25T04:04:50.548Z,20.8984375
2022-12-25T04:14:50.512Z,20.80078125
2022-12-25T04:24:50.416Z,20.8984375
2022-12-25T04:34:50.329Z,20.80078125
2022-12-25T04:44:50.255Z,20.703125
2022-12-25T04:54:50.211Z,20.80078125
2022-12-25T05:04:50.101Z,20.60546875
2022-12-25T05:14:50.031Z,20.49560546875
2022-12-25T05:24:49.964Z,20.20263671875
2022-12-25T05:34:49.892Z,20.10498046875
2022-12-25T05:44:49.839Z,19.8974609375
2022-12-25T05:54:49.746Z,19.7021484375
2022-12-25T06:04:49.709Z,19.49462890625
2022-12-25T06:14:49.627Z,19.39697265625
2022-12-25T06:24:49.551Z,19.20166015625
2022-12-25T06:34:49.480Z,19.20166015625
2022-12-25T06:44:49.398Z,18.994140625
2022-12-25T06:54:49.304Z,18.701171875
2022-12-25T07:04:49.223Z,18.505859375
2022-12-25T07:14:49.175Z,18.29833984375
2022-12-25T07:24:49.079Z,18.10302734375
2022-12-25T07:34:49.033Z,17.7978515625
2022-12-25T07:44:48.956Z,17.7001953125
2022-12-25T07:54:48.888Z,17.6025390625
2022-12-25T08:04:48.819Z,17.5048828125
2022-12-25T08:14:48.755Z,17.5048828125
2022-12-25T08:24:48.655Z,17.29736328125
2022-12-25T08:34:48.605Z,17.19970703125
2022-12-25T08:44:48.541Z,17.00439453125
2022-12-25T08:54:48.518Z,17.10205078125
2022-12-25T09:04:48.358Z,17.10205078125
2022-12-25T09:14:48.400Z,17.00439453125
2022-12-25T09:24:48.257Z,16.89453125
2022-12-25T09:34:48.133Z,16.69921875
2022-12-25T09:44:48.175Z,16.6015625
2022-12-25T09:54:48.024Z,16.6015625
2022-12-25T10:04:47.906Z,16.29638671875
2022-12-25T10:14:47.840Z,16.19873046875
2022-12-25T10:24:47.801Z,16.00341796875
2022-12-25T10:34:47.691Z,15.90576171875
2022-12-25T10:44:47.630Z,15.7958984375
2022-12-25T10:54:47.546Z,15.6982421875
2022-12-25T11:04:47.479Z,15.6005859375
2022-12-25T11:14:47.443Z,15.5029296875
2022-12-25T11:24:47.367Z,15.5029296875
2022-12-25T11:34:47.397Z,15.4052734375
2022-12-25T11:44:47.192Z,15.29541015625
2022-12-25T11:54:47.184Z,15.29541015625
2022-12-25T12:04:47.271Z,15.29541015625
2022-12-25T12:14:46.980Z,15.4052734375
2022-12-25T12:24:46.948Z,15.5029296875
2022-12-25T12:34:46.876Z,15.6005859375
2022-12-25T12:44:46.815Z,15.6982421875
2022-12-25T12:54:46.728Z,15.7958984375
2022-12-25T13:04:46.617Z,15.90576171875
2022-12-25T13:14:46.594Z,15.90576171875
2022-12-25T13:24:46.522Z,16.00341796875
2022-12-25T13:34:46.451Z,16.00341796875
2022-12-25T13:44:46.398Z,15.90576171875
2022-12-25T13:54:46.437Z,15.6982421875
2022-12-25T14:04:46.226Z,15.5029296875
2022-12-25T14:14:46.168Z,15.29541015625
2022-12-25T14:24:46.103Z,15.10009765625
2022-12-25T14:34:46.019Z,14.794921875
2022-12-25T14:44:45.920Z,14.599609375
2022-12-25T14:54:45.880Z,14.501953125
2022-12-25T15:04:45.793Z,14.404296875
2022-12-25T15:14:45.711Z,14.404296875
2022-12-25T15:24:45.633Z,14.19677734375
2022-12-25T15:34:45.577Z,14.09912109375
2022-12-25T15:44:45.505Z,14.09912109375
2022-12-25T15:54:45.527Z,14.00146484375
2022-12-25T16:04:45.346Z,13.90380859375
2022-12-25T16:14:45.270Z,14.00146484375
2022-12-25T16:24:45.223Z,13.90380859375
2022-12-25T16:34:45.156Z,13.90380859375
2022-12-25T16:44:45.037Z,13.90380859375
2022-12-25T16:54:45.076Z,13.90380859375
2022-12-25T17:04:44.926Z,13.90380859375
2022-12-25T17:14:44.871Z,13.90380859375
2022-12-25T17:24:44.782Z,14.00146484375
2022-12-25T17:34:44.716Z,14.00146484375
2022-12-25T17:44:44.619Z,14.00146484375
2022-12-25T17:54:44.570Z,14.00146484375
2022-12-25T18:04:44.490Z,14.00146484375
2022-12-25T18:14:44.437Z,14.00146484375
2022-12-25T18:24:44.307Z,14.19677734375
2022-12-25T18:34:44.271Z,14.19677734375
2022-12-25T18:44:44.275Z,14.19677734375
2022-12-25T18:54:44.149Z,14.19677734375
2022-12-25T19:04:44.226Z,14.29443359375
2022-12-25T19:14:47.591Z,14.404296875
2022-12-25T19:24:43.920Z,14.404296875
2022-12-25T19:34:43.813Z,14.599609375
2022-12-25T19:44:43.738Z,14.599609375
2022-12-25T19:54:43.673Z,14.794921875
2022-12-25T20:04:43.590Z,15.10009765625
2022-12-25T20:14:43.526Z,15.4052734375
2022-12-25T20:24:43.578Z,16.19873046875
2022-12-25T20:34:43.521Z,17.10205078125
2022-12-25T20:44:43.305Z,18.29833984375
2022-12-25T20:54:43.281Z,19.49462890625
2022-12-25T21:04:44.239Z,20.49560546875
2022-12-25T21:14:43.107Z,19.7021484375
2022-12-25T21:24:43.031Z,21.30126953125
2022-12-25T21:34:43.067Z,21.49658203125
2022-12-25T21:44:42.892Z,22.30224609375
2022-12-25T21:54:42.822Z,22.802734375
2022-12-25T22:04:42.769Z,22.900390625
2022-12-25T22:14:51.732Z,23.7060546875
2022-12-25T22:24:42.599Z,24.49951171875
2022-12-25T22:34:42.499Z,24.49951171875
2022-12-25T22:44:42.478Z,24.40185546875
2022-12-25T22:54:42.361Z,24.8046875
2022-12-25T23:04:42.285Z,24.69482421875
2022-12-25T23:14:42.241Z,24.30419921875
2022-12-25T23:24:42.174Z,26.0009765625
2022-12-25T23:34:42.102Z,26.4892578125
2022-12-25T23:44:42.032Z,27.490234375
2022-12-25T23:54:41.927Z,27.294921875
